To NAV CANADA Home Page Login to a new session Search on AWWS site Disclaimer Vers la page française équivalente Tips FAQ What's new on the site To the Forecasts and Observations / NOTAM section To "File a Flight Plan" website Publications and other links Update of the User's profile FIC Telephone Numbers My Weather Data Folder Route Weather Data Regional Weather Data Local Weather Data To the Forecasts and Observations / NOTAM section
Request Generated 11/13/2018 at 18:10:20 UTC . Weather information available at that time is displayed.

METAR/TAF

MOOSE JAW/AIR VICE MARSHAL C.M. MCEWEN/SK    

METAR CYMJ 131800Z 25011KT 15SM FEW100 BKN160 BKN250 01/M02 A3017 RMK AC1AC6CI2 SLP247=
METAR CYMJ 131700Z 25010KT 15SM FEW110 BKN160 OVC250 M00/M03 A3019 RMK AC2AC4CI2 SLP261=
METAR CYMJ 131600Z 25006KT 15SM FEW081 BKN100 OVC250 M01/M04 A3020 RMK AC1AS6CI2 SLP265=

TAF CYMJ 131730Z 1318/1406 25010KT P6SM FEW110 BKN160
FM140200 23010KT P6SM SCT170
RMK NXT FCST BY 140000Z=
Your time UTC time
Weather data provided by Environment Canada and NAV CANADA